createdAt,value
2023-05-13T00:01:44.266Z,9.07
2023-05-13T00:04:11.220Z,10.93
2023-05-13T00:06:38.414Z,10.10
2023-05-13T00:09:05.417Z,9.40
2023-05-13T00:11:32.339Z,9.00
2023-05-13T00:13:59.229Z,10.27
2023-05-13T00:16:27.765Z,9.70
2023-05-13T00:18:55.722Z,9.50
2023-05-13T00:21:23.469Z,9.70
2023-05-13T00:23:50.432Z,10.43
2023-05-13T00:26:17.367Z,8.90
2023-05-13T00:28:47.342Z,9.00
2023-05-13T00:31:14.257Z,9.27
2023-05-13T00:33:41.162Z,9.30
2023-05-13T00:36:10.147Z,9.83
2023-05-13T00:38:38.009Z,9.63
2023-05-13T00:41:05.896Z,9.97
2023-05-13T00:43:32.779Z,10.10
2023-05-13T00:46:00.245Z,9.70
2023-05-13T00:48:27.461Z,10.57
2023-05-13T00:50:54.383Z,10.30
2023-05-13T00:53:21.627Z,9.77
2023-05-13T00:55:48.584Z,9.37
2023-05-13T00:58:17.306Z,10.93
2023-05-13T01:01:34.400Z,10.67
2023-05-13T01:04:46.424Z,10.17
2023-05-13T01:07:24.416Z,10.60
2023-05-13T01:10:03.358Z,8.87
2023-05-13T01:12:34.861Z,9.23
2023-05-13T01:15:12.545Z,9.93
2023-05-13T01:18:05.564Z,9.07
2023-05-13T01:20:34.634Z,9.87
2023-05-13T01:23:03.924Z,9.70
2023-05-13T01:25:31.168Z,9.47
2023-05-13T01:27:58.402Z,10.00
2023-05-13T01:30:26.699Z,9.40
2023-05-13T01:32:54.087Z,9.07
2023-05-13T01:35:21.675Z,9.87
2023-05-13T01:37:50.213Z,9.17
2023-05-13T01:40:31.091Z,10.30
2023-05-13T01:43:02.681Z,10.43
2023-05-13T01:45:30.439Z,10.50
2023-05-13T01:47:58.059Z,10.73
2023-05-13T01:50:29.280Z,10.10
2023-05-13T01:52:57.384Z,9.13
2023-05-13T01:55:24.502Z,9.90
2023-05-13T01:57:51.856Z,9.80
2023-05-13T02:00:18.979Z,10.50
2023-05-13T02:02:49.181Z,9.77
2023-05-13T02:05:16.748Z,9.20
2023-05-13T02:07:44.417Z,10.23
2023-05-13T02:10:11.788Z,10.47
2023-05-13T02:12:38.704Z,10.23
2023-05-13T02:15:06.418Z,10.23
2023-05-13T02:17:33.366Z,11.57
2023-05-13T02:20:00.453Z,10.17
2023-05-13T02:22:27.396Z,11.10
2023-05-13T02:24:54.324Z,11.43
2023-05-13T02:27:21.237Z,10.87
2023-05-13T02:29:48.151Z,10.10
2023-05-13T02:32:15.136Z,10.67
2023-05-13T02:34:42.053Z,10.53
2023-05-13T02:37:09.118Z,10.80
2023-05-13T02:39:43.606Z,11.40
2023-05-13T02:42:11.269Z,11.50
2023-05-13T02:44:38.169Z,11.10
2023-05-13T02:47:05.671Z,11.13
2023-05-13T02:49:32.581Z,11.30
2023-05-13T02:51:59.585Z,11.63
2023-05-13T02:54:33.058Z,10.50
2023-05-13T02:56:59.970Z,11.40
2023-05-13T02:59:27.080Z,11.37
2023-05-13T03:01:53.975Z,10.73
2023-05-13T03:04:20.881Z,10.77
2023-05-13T03:06:48.265Z,11.93
2023-05-13T03:09:15.434Z,11.10
2023-05-13T03:11:42.332Z,10.50
2023-05-13T03:14:09.211Z,10.60
2023-05-13T03:16:38.170Z,11.33
2023-05-13T03:19:05.209Z,11.20
2023-05-13T03:21:32.135Z,11.93
2023-05-13T03:23:59.117Z,11.13
2023-05-13T03:26:26.784Z,10.73
2023-05-13T03:28:53.676Z,11.77
2023-05-13T03:31:21.587Z,11.13
2023-05-13T03:33:48.956Z,11.00
2023-05-13T03:36:15.914Z,11.30
2023-05-13T03:38:42.951Z,11.20
2023-05-13T03:41:09.950Z,11.03
2023-05-13T03:43:36.926Z,11.03
2023-05-13T03:46:08.198Z,11.27
2023-05-13T03:48:35.473Z,10.90
2023-05-13T03:51:03.649Z,12.80
2023-05-13T03:53:30.607Z,11.10
2023-05-13T03:55:57.974Z,11.47
2023-05-13T03:58:24.878Z,10.33
2023-05-13T04:00:51.797Z,11.30
2023-05-13T04:03:19.249Z,11.30
2023-05-13T04:05:47.374Z,11.97
2023-05-13T04:08:14.533Z,12.40
2023-05-13T04:10:41.437Z,12.00
2023-05-13T04:13:08.358Z,11.80
2023-05-13T04:15:35.328Z,11.47
2023-05-13T04:18:02.329Z,11.87
2023-05-13T04:20:29.270Z,10.93
2023-05-13T04:22:56.480Z,11.30
2023-05-13T04:25:23.427Z,10.50
2023-05-13T04:27:50.451Z,9.90
2023-05-13T04:30:25.162Z,10.50
2023-05-13T04:32:52.120Z,10.73
2023-05-13T04:35:20.129Z,9.57
2023-05-13T04:37:52.027Z,11.50
2023-05-13T04:40:20.183Z,10.70
2023-05-13T04:42:54.452Z,10.10
2023-05-13T04:45:25.360Z,10.57
2023-05-13T04:47:52.421Z,10.53
2023-05-13T04:50:19.616Z,10.70
2023-05-13T04:52:47.638Z,10.17
2023-05-13T04:55:16.611Z,9.60
2023-05-13T04:57:43.574Z,9.17
2023-05-13T05:00:12.136Z,10.17
2023-05-13T05:02:40.860Z,9.20
2023-05-13T05:05:08.151Z,9.20
2023-05-13T05:07:35.068Z,8.97
2023-05-13T05:10:02.055Z,10.33
2023-05-13T05:12:32.336Z,10.23
2023-05-13T05:14:59.253Z,9.13
2023-05-13T05:17:29.212Z,9.80
2023-05-13T05:19:56.351Z,9.00
2023-05-13T05:22:24.315Z,9.53
2023-05-13T05:24:51.247Z,10.13
2023-05-13T05:27:19.306Z,8.80
2023-05-13T05:29:46.218Z,9.40
2023-05-13T05:32:13.163Z,9.70
2023-05-13T05:34:40.130Z,8.47
2023-05-13T05:37:07.149Z,10.00
2023-05-13T05:39:37.074Z,8.87
2023-05-13T05:42:04.198Z,8.87
2023-05-13T05:44:31.127Z,9.40
2023-05-13T05:46:57.992Z,9.00
2023-05-13T05:49:25.199Z,8.93
2023-05-13T05:51:52.359Z,9.10
2023-05-13T05:54:20.745Z,9.00
2023-05-13T05:56:48.288Z,9.60
2023-05-13T05:59:15.341Z,9.23
2023-05-13T06:01:42.263Z,9.07
2023-05-13T06:04:09.460Z,9.63
2023-05-13T06:06:36.733Z,9.23
2023-05-13T06:09:05.800Z,8.53
2023-05-13T06:11:33.829Z,9.97
2023-05-13T06:14:00.809Z,8.40
2023-05-13T06:16:27.833Z,9.07
2023-05-13T06:18:54.775Z,8.70
2023-05-13T06:21:21.765Z,8.43
2023-05-13T06:23:49.565Z,8.13
2023-05-13T06:26:16.520Z,8.17
2023-05-13T06:28:43.371Z,8.57
2023-05-13T06:31:10.303Z,7.90
2023-05-13T06:33:37.722Z,7.50
2023-05-13T06:36:05.223Z,8.20
2023-05-13T06:38:34.509Z,8.50
2023-05-13T06:41:01.815Z,8.57
2023-05-13T06:43:34.742Z,7.97
2023-05-13T06:46:12.940Z,8.57
2023-05-13T06:48:39.905Z,7.60
2023-05-13T06:51:07.157Z,8.43
2023-05-13T06:53:34.038Z,8.40
2023-05-13T06:56:00.982Z,7.70
2023-05-13T06:58:27.877Z,6.37
2023-05-13T07:00:54.819Z,7.30
2023-05-13T07:03:21.800Z,6.20
2023-05-13T07:05:48.739Z,6.07
2023-05-13T07:08:17.934Z,6.80
2023-05-13T07:10:45.128Z,7.20
2023-05-13T07:13:12.381Z,7.20
2023-05-13T07:15:39.384Z,6.90
2023-05-13T07:18:06.383Z,6.73
2023-05-13T07:20:33.405Z,6.00
2023-05-13T07:23:00.315Z,5.57
2023-05-13T07:25:27.231Z,5.90
2023-05-13T07:27:54.201Z,6.57
2023-05-13T07:30:21.473Z,5.73
2023-05-13T07:32:48.673Z,6.13
2023-05-13T07:35:17.094Z,4.93
2023-05-13T07:37:47.518Z,6.33
2023-05-13T07:40:14.553Z,5.70
2023-05-13T07:42:41.496Z,5.70
2023-05-13T07:45:09.163Z,5.60
2023-05-13T07:47:36.224Z,5.83
2023-05-13T07:50:03.604Z,4.77
2023-05-13T07:52:30.554Z,5.30
2023-05-13T07:54:57.481Z,5.27
2023-05-13T07:57:24.438Z,5.67
2023-05-13T07:59:52.709Z,5.30
2023-05-13T08:02:19.974Z,5.90
2023-05-13T08:04:47.269Z,5.10
2023-05-13T08:07:14.245Z,4.70
2023-05-13T08:09:41.150Z,4.70
2023-05-13T08:12:08.271Z,4.60
2023-05-13T08:14:36.104Z,4.60
2023-05-13T08:17:06.318Z,4.80
2023-05-13T08:19:33.241Z,5.10
2023-05-13T08:22:00.184Z,4.47
2023-05-13T08:24:27.099Z,4.77
2023-05-13T08:26:54.010Z,4.00
2023-05-13T08:29:20.896Z,4.53
2023-05-13T08:31:47.849Z,4.20
2023-05-13T08:34:14.972Z,4.93
2023-05-13T08:36:41.842Z,4.40
2023-05-13T08:39:08.807Z,4.57
2023-05-13T08:41:35.828Z,4.70
2023-05-13T08:44:06.808Z,4.00
2023-05-13T08:46:35.053Z,4.93
2023-05-13T08:49:02.449Z,4.80
2023-05-13T08:51:29.453Z,4.87
2023-05-13T08:53:56.690Z,4.23
2023-05-13T08:56:25.640Z,4.47
2023-05-13T08:58:52.524Z,4.73
2023-05-13T09:01:19.554Z,5.80
2023-05-13T09:04:00.005Z,4.30
2023-05-13T09:06:26.938Z,4.40
2023-05-13T09:08:54.877Z,4.50
2023-05-13T09:11:22.083Z,5.10
2023-05-13T09:14:11.748Z,4.40
2023-05-13T09:16:38.953Z,4.47
2023-05-13T09:19:08.211Z,4.77
2023-05-13T09:21:36.057Z,4.50
2023-05-13T09:24:18.062Z,4.70
2023-05-13T09:26:46.089Z,4.50
2023-05-13T09:29:22.685Z,3.90
2023-05-13T09:31:54.978Z,4.10
2023-05-13T09:34:34.254Z,4.10
2023-05-13T09:37:06.886Z,4.10
2023-05-13T09:39:41.661Z,4.10
2023-05-13T09:42:16.862Z,4.20
2023-05-13T09:44:45.913Z,4.10
2023-05-13T09:47:17.038Z,4.03
2023-05-13T09:49:47.041Z,3.57
2023-05-13T09:52:17.094Z,4.00
2023-05-13T09:54:44.839Z,3.80
2023-05-13T09:57:13.836Z,3.70
2023-05-13T09:59:41.546Z,3.57
2023-05-13T10:02:08.886Z,3.53
2023-05-13T10:04:35.847Z,3.63
2023-05-13T10:07:05.092Z,4.40
2023-05-13T10:09:36.752Z,3.60
2023-05-13T10:12:07.585Z,3.70
2023-05-13T10:14:37.426Z,3.50
2023-05-13T10:17:05.456Z,3.70
2023-05-13T10:19:32.951Z,3.20
2023-05-13T10:22:00.396Z,4.27
2023-05-13T10:24:28.977Z,3.80
2023-05-13T10:26:58.050Z,4.97
2023-05-13T10:29:26.580Z,3.50
2023-05-13T10:31:54.425Z,3.60
2023-05-13T10:34:22.949Z,4.37
2023-05-13T10:37:14.083Z,4.10
2023-05-13T10:40:47.607Z,4.60
2023-05-13T10:43:38.192Z,3.00
2023-05-13T10:46:12.445Z,3.03
2023-05-13T10:48:43.004Z,3.73
2023-05-13T10:51:14.906Z,4.10
2023-05-13T10:53:52.899Z,3.30
2023-05-13T10:56:26.065Z,5.23
2023-05-13T10:59:02.443Z,3.40
2023-05-13T11:01:31.191Z,4.00
2023-05-13T11:04:01.352Z,3.87
2023-05-13T11:06:38.529Z,6.50
2023-05-13T11:09:28.519Z,4.30
2023-05-13T11:11:57.908Z,3.60
2023-05-13T11:14:31.031Z,3.73
2023-05-13T11:17:01.076Z,3.80
2023-05-13T11:19:34.646Z,4.00
2023-05-13T11:22:13.597Z,6.40
2023-05-13T11:24:41.264Z,4.77
2023-05-13T11:27:20.889Z,4.33
2023-05-13T11:29:57.957Z,3.60
2023-05-13T11:32:58.081Z,3.90
2023-05-13T11:35:27.460Z,4.63
2023-05-13T11:37:58.238Z,3.73
2023-05-13T11:40:35.058Z,3.50
2023-05-13T11:43:02.388Z,4.80
2023-05-13T11:45:30.428Z,4.30
2023-05-13T11:47:57.895Z,3.63
2023-05-13T11:50:30.135Z,4.00
2023-05-13T11:53:00.123Z,3.57
2023-05-13T11:55:32.705Z,3.70
2023-05-13T11:58:00.287Z,4.50
2023-05-13T12:00:32.213Z,3.90
2023-05-13T12:03:00.644Z,3.60
2023-05-13T12:05:28.140Z,4.20
2023-05-13T12:07:59.280Z,4.33
2023-05-13T12:10:26.743Z,3.70
2023-05-13T12:12:54.284Z,3.97
2023-05-13T12:15:22.241Z,3.97
2023-05-13T12:17:49.855Z,3.80
2023-05-13T12:20:22.093Z,3.70
2023-05-13T12:22:50.979Z,3.70
2023-05-13T12:25:37.498Z,4.07
2023-05-13T12:28:24.655Z,4.10
2023-05-13T12:31:03.342Z,3.83
2023-05-13T12:33:34.238Z,4.30
2023-05-13T12:36:32.107Z,4.73
2023-05-13T12:39:02.513Z,3.73
2023-05-13T12:41:32.633Z,3.90
2023-05-13T12:44:09.030Z,3.60
2023-05-13T12:46:36.716Z,4.33
2023-05-13T12:49:05.335Z,3.77
2023-05-13T12:51:35.493Z,3.90
2023-05-13T12:54:02.445Z,3.77
2023-05-13T12:56:29.331Z,4.10
2023-05-13T12:58:56.526Z,3.53
2023-05-13T13:01:23.497Z,3.30
2023-05-13T13:03:50.804Z,4.40
2023-05-13T13:06:18.820Z,3.80
2023-05-13T13:08:45.814Z,3.97
2023-05-13T13:11:18.575Z,4.13
2023-05-13T13:13:46.668Z,3.93
2023-05-13T13:16:14.134Z,3.77
2023-05-13T13:18:42.234Z,5.40
2023-05-13T13:21:10.879Z,3.60
2023-05-13T13:23:37.867Z,4.17
2023-05-13T13:26:04.854Z,3.80
2023-05-13T13:28:31.987Z,4.00
2023-05-13T13:30:59.934Z,3.43
2023-05-13T13:33:26.970Z,3.97
2023-05-13T13:35:55.120Z,3.73
2023-05-13T13:38:21.998Z,3.80
2023-05-13T13:40:48.880Z,3.43
2023-05-13T13:43:15.867Z,4.10
2023-05-13T13:45:42.830Z,3.80
2023-05-13T13:48:09.788Z,2.93
2023-05-13T13:50:36.790Z,3.60
2023-05-13T13:53:03.710Z,3.63
2023-05-13T13:55:30.878Z,3.43
2023-05-13T13:57:57.745Z,3.90
2023-05-13T14:00:24.820Z,4.20
2023-05-13T14:02:51.916Z,3.90
2023-05-13T14:05:19.493Z,3.37
2023-05-13T14:07:48.284Z,3.30
2023-05-13T14:10:15.351Z,3.47
2023-05-13T14:12:42.336Z,3.47
2023-05-13T14:15:09.511Z,3.27
2023-05-13T14:17:36.465Z,3.30
2023-05-13T14:20:03.977Z,3.40
2023-05-13T14:22:30.879Z,3.97
2023-05-13T14:24:58.989Z,3.83
2023-05-13T14:27:25.923Z,3.40
2023-05-13T14:29:52.850Z,3.50
2023-05-13T14:32:19.735Z,3.53
2023-05-13T14:34:46.624Z,3.40
2023-05-13T14:37:13.520Z,3.27
2023-05-13T14:39:40.598Z,3.63
2023-05-13T14:42:07.522Z,3.00
2023-05-13T14:44:34.433Z,4.10
2023-05-13T14:47:01.415Z,3.13
2023-05-13T14:49:28.450Z,3.17
2023-05-13T14:51:55.555Z,3.30
2023-05-13T14:54:22.459Z,3.27
2023-05-13T14:56:50.457Z,3.30
2023-05-13T14:59:17.355Z,3.63
2023-05-13T15:01:44.744Z,3.40
2023-05-13T15:04:11.658Z,2.90
2023-05-13T15:06:39.008Z,3.43
2023-05-13T15:09:07.045Z,3.57
2023-05-13T15:11:33.954Z,2.90
2023-05-13T15:14:02.165Z,3.10
2023-05-13T15:16:29.079Z,3.57
2023-05-13T15:18:56.227Z,3.93
2023-05-13T15:21:23.242Z,3.83
2023-05-13T15:23:50.217Z,4.10
2023-05-13T15:26:17.125Z,3.90
2023-05-13T15:28:44.015Z,4.43
2023-05-13T15:31:10.968Z,4.30
2023-05-13T15:33:37.917Z,3.50
2023-05-13T15:36:06.149Z,3.63
2023-05-13T15:38:33.105Z,4.60
2023-05-13T15:41:00.361Z,4.00
2023-05-13T15:43:28.311Z,4.60
2023-05-13T15:45:55.363Z,4.17
2023-05-13T15:48:22.456Z,4.87
2023-05-13T15:50:49.346Z,4.60
2023-05-13T15:53:16.245Z,4.30
2023-05-13T15:55:43.132Z,4.53
2023-05-13T15:58:10.013Z,5.40
2023-05-13T16:00:36.934Z,4.30
2023-05-13T16:03:04.013Z,4.97
2023-05-13T16:05:31.019Z,4.40
2023-05-13T16:07:57.985Z,4.37
2023-05-13T16:10:25.078Z,4.80
2023-05-13T16:12:52.278Z,4.40
2023-05-13T16:15:19.191Z,4.97
2023-05-13T16:17:46.169Z,4.73
2023-05-13T16:20:13.519Z,4.90
2023-05-13T16:22:40.676Z,5.07
2023-05-13T16:25:09.987Z,4.23
2023-05-13T16:27:39.209Z,4.70
2023-05-13T16:30:07.446Z,4.40
2023-05-13T16:32:35.039Z,4.20
2023-05-13T16:35:03.241Z,4.60
2023-05-13T16:37:34.471Z,4.30
2023-05-13T16:40:01.389Z,4.57
2023-05-13T16:42:28.292Z,4.50
2023-05-13T16:44:55.253Z,4.43
2023-05-13T16:47:22.214Z,4.53
2023-05-13T16:49:50.203Z,4.23
2023-05-13T16:52:17.183Z,5.13
2023-05-13T16:54:44.673Z,4.47
2023-05-13T16:57:11.713Z,4.50
2023-05-13T16:59:38.590Z,4.10
2023-05-13T17:02:06.153Z,3.70
2023-05-13T17:04:33.996Z,3.90
2023-05-13T17:07:01.372Z,3.40
2023-05-13T17:09:30.904Z,4.73
2023-05-13T17:11:57.956Z,4.23
2023-05-13T17:14:25.318Z,3.60
2023-05-13T17:16:52.460Z,3.67
2023-05-13T17:19:19.709Z,3.93
2023-05-13T17:21:47.098Z,3.40
2023-05-13T17:24:13.977Z,4.40
2023-05-13T17:26:40.879Z,4.57
2023-05-13T17:29:07.901Z,4.00
2023-05-13T17:31:34.826Z,4.40
2023-05-13T17:34:01.743Z,3.57
2023-05-13T17:36:28.678Z,4.43
2023-05-13T17:38:55.611Z,4.30
2023-05-13T17:41:22.568Z,4.53
2023-05-13T17:43:49.466Z,4.70
2023-05-13T17:46:16.408Z,4.37
2023-05-13T17:48:43.500Z,4.87
2023-05-13T17:51:11.153Z,4.90
2023-05-13T17:53:38.070Z,5.33
2023-05-13T17:56:05.682Z,4.83
2023-05-13T17:58:32.635Z,4.40
2023-05-13T18:00:59.515Z,4.80
2023-05-13T18:03:26.750Z,4.20
2023-05-13T18:05:53.737Z,4.40
2023-05-13T18:08:20.821Z,4.63
2023-05-13T18:10:48.533Z,4.50
2023-05-13T18:13:15.725Z,5.10
2023-05-13T18:15:42.635Z,5.33
2023-05-13T18:18:09.919Z,4.60
2023-05-13T18:20:37.574Z,4.93
2023-05-13T18:23:04.493Z,6.23
2023-05-13T18:25:32.714Z,5.60
2023-05-13T18:28:00.531Z,5.00
2023-05-13T18:30:28.243Z,5.60
2023-05-13T18:32:56.289Z,5.20
2023-05-13T18:35:24.305Z,5.67
2023-05-13T18:37:51.261Z,5.80
2023-05-13T18:40:18.731Z,4.83
2023-05-13T18:42:45.622Z,5.90
2023-05-13T18:45:12.530Z,5.30
2023-05-13T18:47:39.416Z,5.50
2023-05-13T18:50:06.741Z,5.30
2023-05-13T18:52:33.860Z,5.13
2023-05-13T18:55:05.051Z,6.63
2023-05-13T18:57:31.946Z,6.50
2023-05-13T18:59:58.890Z,6.23
2023-05-13T19:02:26.235Z,6.03
2023-05-13T19:04:53.426Z,6.40
2023-05-13T19:07:20.357Z,6.90
2023-05-13T19:09:48.370Z,6.00
2023-05-13T19:12:15.276Z,6.37
2023-05-13T19:14:42.433Z,7.10
2023-05-13T19:17:09.387Z,7.37
2023-05-13T19:19:36.523Z,8.43
2023-05-13T19:22:03.633Z,8.37
2023-05-13T19:24:30.519Z,8.00
2023-05-13T19:26:57.401Z,8.50
2023-05-13T19:29:24.279Z,8.83
2023-05-13T19:31:51.165Z,9.60
2023-05-13T19:34:18.060Z,10.13
2023-05-13T19:36:46.366Z,9.33
2023-05-13T19:39:13.248Z,9.67
2023-05-13T19:41:40.146Z,10.83
2023-05-13T19:44:07.290Z,10.70
2023-05-13T19:46:34.236Z,11.03
2023-05-13T19:49:01.167Z,10.83
2023-05-13T19:51:28.054Z,11.90
2023-05-13T19:53:54.969Z,12.37
2023-05-13T19:56:21.874Z,11.87
2023-05-13T19:58:49.010Z,12.60
2023-05-13T20:01:15.944Z,12.80
2023-05-13T20:03:43.006Z,13.93
2023-05-13T20:06:10.075Z,14.23
2023-05-13T20:08:38.269Z,13.57
2023-05-13T20:11:05.137Z,13.87
2023-05-13T20:13:32.487Z,13.53
2023-05-13T20:15:59.351Z,15.57
2023-05-13T20:18:26.266Z,16.83
2023-05-13T20:20:53.670Z,16.57
2023-05-13T20:23:21.035Z,17.00
2023-05-13T20:25:47.909Z,17.13
2023-05-13T20:28:14.849Z,16.10
2023-05-13T20:30:44.878Z,14.27
2023-05-13T20:33:12.871Z,14.50
2023-05-13T20:35:39.711Z,14.57
2023-05-13T20:38:06.920Z,14.80
2023-05-13T20:40:33.841Z,14.40
2023-05-13T20:43:01.573Z,12.87
2023-05-13T20:45:28.697Z,12.20
2023-05-13T20:47:59.362Z,11.50
2023-05-13T20:50:27.655Z,9.43
2023-05-13T20:52:55.459Z,9.50
2023-05-13T20:55:22.589Z,8.40
2023-05-13T20:57:51.052Z,8.47
2023-05-13T21:00:18.223Z,9.00
2023-05-13T21:02:45.712Z,9.70
2023-05-13T21:05:12.835Z,10.83
2023-05-13T21:07:39.815Z,10.30
2023-05-13T21:10:07.925Z,12.70
2023-05-13T21:12:34.772Z,12.53
2023-05-13T21:15:01.636Z,12.30
2023-05-13T21:17:28.531Z,12.70
2023-05-13T21:19:55.431Z,13.97
2023-05-13T21:22:22.321Z,12.47
2023-05-13T21:24:50.142Z,12.23
2023-05-13T21:27:16.984Z,13.83
2023-05-13T21:29:43.870Z,14.23
2023-05-13T21:32:11.933Z,17.67
2023-05-13T21:34:38.902Z,19.57
2023-05-13T21:37:05.934Z,21.07
2023-05-13T21:39:32.842Z,18.73
2023-05-13T21:42:00.662Z,19.73
2023-05-13T21:44:28.921Z,23.17
2023-05-13T21:46:55.874Z,19.70
2023-05-13T21:49:22.872Z,19.50
2023-05-13T21:51:49.852Z,23.33
2023-05-13T21:54:18.167Z,21.33
2023-05-13T21:56:45.207Z,19.50
2023-05-13T21:59:12.115Z,18.50
2023-05-13T22:01:39.032Z,18.13
2023-05-13T22:04:05.960Z,17.87
2023-05-13T22:06:33.517Z,16.87
2023-05-13T22:09:01.277Z,18.67
2023-05-13T22:11:28.233Z,22.97
2023-05-13T22:13:55.147Z,25.23
2023-05-13T22:16:22.303Z,26.53
2023-05-13T22:18:50.877Z,23.80
2023-05-13T22:21:17.835Z,19.00
2023-05-13T22:23:44.716Z,20.57
2023-05-13T22:26:12.030Z,20.00
2023-05-13T22:28:39.032Z,18.33
2023-05-13T22:31:05.920Z,21.40
2023-05-13T22:33:32.802Z,23.23
2023-05-13T22:35:59.689Z,22.60
2023-05-13T22:38:26.596Z,25.00
2023-05-13T22:40:53.473Z,23.20
2023-05-13T22:43:20.393Z,23.93
2023-05-13T22:45:47.291Z,21.30
2023-05-13T22:48:15.076Z,21.90
2023-05-13T22:50:41.964Z,20.73
2023-05-13T22:53:08.848Z,19.73
2023-05-13T22:55:35.750Z,18.17
2023-05-13T22:58:02.713Z,15.13
2023-05-13T23:00:29.607Z,14.40
2023-05-13T23:02:57.460Z,14.57
2023-05-13T23:05:24.390Z,14.93
2023-05-13T23:07:51.273Z,14.60
2023-05-13T23:10:18.195Z,14.87
2023-05-13T23:12:45.077Z,13.33
2023-05-13T23:15:14.275Z,13.13
2023-05-13T23:17:41.228Z,14.77
2023-05-13T23:20:08.877Z,13.80
2023-05-13T23:22:35.894Z,13.03
2023-05-13T23:25:03.680Z,12.57
2023-05-13T23:27:31.498Z,13.10
2023-05-13T23:29:59.216Z,12.90
2023-05-13T23:32:26.477Z,12.53
2023-05-13T23:34:53.404Z,13.17
2023-05-13T23:37:21.813Z,14.17
2023-05-13T23:39:48.723Z,13.27
2023-05-13T23:42:16.438Z,12.53
2023-05-13T23:44:43.334Z,14.07
2023-05-13T23:47:11.030Z,13.63
2023-05-13T23:49:38.193Z,13.37
2023-05-13T23:52:05.463Z,12.40
2023-05-13T23:54:32.395Z,12.83
2023-05-13T23:56:59.286Z,12.60
2023-05-13T23:59:26.324Z,12.27
